Nearby METAR Reports

 

KMFD - Mansfield, Ohio, USA
Distance from station: E 12mi, 20km
Updated: Tue, 25-Feb-2020 9:52pm EST
Mist, Overcast
Mist, Overcast
 Wind from NNE
Wind: NNE 13 mph , 20 km/h
Temperature: 36°F , 2°C
Wind Chill: 27°F , -3°C
Dew Point: 34°F , 1°C
Humidity: 93%
Barometer: 29.85 inHg , 1010.8 hPa
Summary: Mist
Clouds: Overcast
Visibility: 6 miles , 10 km
Cloud details: Overcast 300 ft
2020/02/26 02:52 KMFD 260252Z 02011KT 6SM BR OVC003 02/01 A2985 RMK AO2 SLP118 T00220011 51005
KMNN - Marion, Ohio, USA
Distance from station: SW 20mi, 33km
Updated: Tue, 25-Feb-2020 9:53pm EST
Overcast
Overcast
 Wind from NE
Wind: NE 14 mph , 22 km/h
Temperature: 36°F , 2°C
Wind Chill: 27°F , -3°C
Dew Point: 34°F , 1°C
Humidity: 93%
Barometer: 29.88 inHg , 1011.9 hPa
Clouds: Overcast
Visibility: 7 miles , 11 km
Cloud details: Overcast 700 ft
2020/02/26 02:53 KMNN 260253Z AUTO 04012KT 7SM OVC007 02/01 A2988 RMK AO2 UPE00 SLP127 P0000 60000 T00220006 52009
 
K4I3 - Mt Vernon/Knox, Ohio, USA
Distance from station: SSE 33mi, 54km
Updated: Tue, 25-Feb-2020 9:35pm EST
Mist, Overcast
Mist, Overcast
 Wind from N
Wind: N 7 mph , 11 km/h
Temperature: 36°F , 2°C
Wind Chill: 30°F , -1°C
Dew Point: 36°F , 2°C
Humidity: 100%
Barometer: 29.85 inHg , 1010.8 hPa
Summary: Mist
Clouds: Overcast
Visibility: 3 miles , 5 km
Cloud details: Overcast 500 ft
2020/02/26 02:35 K4I3 260235Z AUTO 01006KT 3SM BR OVC005 02/02 A2985 RMK AO2
KDLZ - Delaware, Ohio, USA
Distance from station: SSW 40mi, 64km
Updated: Tue, 25-Feb-2020 9:36pm EST
Mist, Overcast
Mist, Overcast
 Wind from N
Wind: N 7 mph , 11 km/h
Temperature: 36°F , 2°C
Wind Chill: 30°F , -1°C
Dew Point: 36°F , 2°C
Humidity: 100%
Barometer: 29.87 inHg , 1011.5 hPa
Summary: Mist
Clouds: Overcast
Visibility: 5 miles , 8 km
Cloud details: Overcast 600 ft
2020/02/26 02:36 KDLZ 260236Z AUTO 35006KT 5SM BR OVC006 02/02 A2987 RMK AO2
 
KBJJ - Wooster, Ohio, USA
Distance from station: E 46mi, 73km
Updated: Tue, 25-Feb-2020 8:56pm EST
Mist, Overcast
Mist, Overcast
 Wind from N
Wind: N 10 mph , 17 km/h
Temperature: 36°F , 2°C
Wind Chill: 29°F , -2°C
Dew Point: 36°F , 2°C
Humidity: 100%
Barometer: 29.86 inHg , 1011.2 hPa
Summary: Mist
Clouds: Overcast
Visibility: 4 miles , 6 km
Cloud details: Overcast 400 ft
2020/02/26 01:56 KBJJ 260156Z AUTO 36009KT 4SM BR OVC004 02/02 A2986 RMK AO2 RAB0058E09 SLP118 P0000 T00220017
KLPR - Lorain/Elyria, Ohio, USA
Distance from station: NE 49mi, 79km
Updated: Tue, 25-Feb-2020 9:53pm EST
Light rain, Overcast
Light rain, Overcast
 Wind from NE
Wind: NE 17 mph , 28 km/h, Gust: 24 mph , 39 km/h
Temperature: 34°F , 1°C
Wind Chill: 23°F , -5°C
Dew Point: 28°F , -2°C
Humidity: 81%
Barometer: 29.89 inHg , 1012.2 hPa
Summary: Light rain
Clouds: Overcast
Visibility: 6 miles , 10 km
Cloud details: Overcast 500 ft
2020/02/26 02:53 KLPR 260253Z AUTO 04015G21KT 6SM -RA OVC005 01/M02 A2989 RMK AO2 UPB0154E11RAB11E21B39SNE0154B21E39 SLP129 P0003 60009 T00111017 50001